createdAt,value
2022-08-25T00:00:05.139Z,66.81
2022-08-25T00:00:15.170Z,66.81
2022-08-25T00:00:25.108Z,66.71
2022-08-25T00:00:35.190Z,66.71
2022-08-25T00:00:45.138Z,66.61
2022-08-25T00:00:55.118Z,66.61
2022-08-25T00:01:05.125Z,66.61
2022-08-25T00:01:15.115Z,66.61
2022-08-25T00:01:26.284Z,66.71
2022-08-25T00:01:35.102Z,66.81
2022-08-25T00:01:45.107Z,66.91
2022-08-25T00:01:55.184Z,66.91
2022-08-25T00:02:05.070Z,66.91
2022-08-25T00:02:15.210Z,66.91
2022-08-25T00:02:25.184Z,66.91
2022-08-25T00:02:35.217Z,66.91
2022-08-25T00:02:55.429Z,66.91
2022-08-25T00:02:56.440Z,67.01
2022-08-25T00:03:05.203Z,67.11
2022-08-25T00:03:15.077Z,67.11
2022-08-25T00:03:25.202Z,67.21
2022-08-25T00:03:35.994Z,67.31
2022-08-25T00:03:45.092Z,67.31
2022-08-25T00:03:55.075Z,67.31
2022-08-25T00:04:05.110Z,67.41
2022-08-25T00:04:15.090Z,67.41
2022-08-25T00:04:25.176Z,67.31
2022-08-25T00:04:35.133Z,67.31
2022-08-25T00:04:45.114Z,67.21
2022-08-25T00:04:55.123Z,67.11
2022-08-25T00:05:05.132Z,67.11
2022-08-25T00:05:15.218Z,67.11
2022-08-25T00:05:25.233Z,67.11
2022-08-25T00:05:35.260Z,67.11
2022-08-25T00:05:45.120Z,67.14
2022-08-25T00:05:55.213Z,67.11
2022-08-25T00:06:05.200Z,67.11
2022-08-25T00:06:15.153Z,67.11
2022-08-25T00:06:25.130Z,67.24
2022-08-25T00:06:35.111Z,67.24
2022-08-25T00:06:45.168Z,67.21
2022-08-25T00:06:58.242Z,67.24
2022-08-25T00:07:05.074Z,67.35
2022-08-25T00:07:18.694Z,67.35
2022-08-25T00:07:25.165Z,67.35
2022-08-25T00:07:35.095Z,67.35
2022-08-25T00:07:45.177Z,67.35
2022-08-25T00:07:55.179Z,67.44
2022-08-25T00:08:05.296Z,67.44
2022-08-25T00:08:15.184Z,67.35
2022-08-25T00:08:25.149Z,67.35
2022-08-25T00:08:35.112Z,67.35
2022-08-25T00:08:45.090Z,67.35
2022-08-25T00:08:55.122Z,67.35
2022-08-25T00:09:05.174Z,67.35
2022-08-25T00:09:15.089Z,67.35
2022-08-25T00:09:25.189Z,67.35
2022-08-25T00:09:35.192Z,67.35
2022-08-25T00:09:45.148Z,67.44
2022-08-25T00:09:55.096Z,67.44
2022-08-25T00:10:05.203Z,67.44
2022-08-25T00:10:15.092Z,67.44
2022-08-25T00:10:25.147Z,67.44
2022-08-25T00:10:35.072Z,67.44
2022-08-25T00:10:45.109Z,67.55
2022-08-25T00:11:03.112Z,67.55
2022-08-25T00:11:05.123Z,67.65
2022-08-25T00:11:15.185Z,67.65
2022-08-25T00:11:25.094Z,67.55
2022-08-25T00:11:35.118Z,67.55
2022-08-25T00:11:45.138Z,67.55
2022-08-25T00:11:55.136Z,67.55
2022-08-25T00:12:05.158Z,67.55
2022-08-25T00:12:15.128Z,67.55
2022-08-25T00:12:25.166Z,67.55
2022-08-25T00:12:35.081Z,67.55
2022-08-25T00:12:45.140Z,67.55
2022-08-25T00:12:55.115Z,67.55
2022-08-25T00:13:05.210Z,67.55
2022-08-25T00:13:15.116Z,67.55
2022-08-25T00:13:25.082Z,67.55
2022-08-25T00:13:35.203Z,67.55
2022-08-25T00:13:45.105Z,67.55
2022-08-25T00:13:55.189Z,67.55
2022-08-25T00:14:05.099Z,67.55
2022-08-25T00:14:15.098Z,67.55
2022-08-25T00:14:25.126Z,67.44
2022-08-25T00:14:35.153Z,67.44
2022-08-25T00:14:45.141Z,67.44
2022-08-25T00:14:55.148Z,67.44
2022-08-25T00:15:05.194Z,67.35
2022-08-25T00:15:15.162Z,67.35
2022-08-25T00:15:25.123Z,67.35
2022-08-25T00:15:35.161Z,67.35
2022-08-25T00:15:45.155Z,67.44
2022-08-25T00:15:55.181Z,67.44
2022-08-25T00:16:05.174Z,67.44
2022-08-25T00:16:15.179Z,67.35
2022-08-25T00:16:25.198Z,67.35
2022-08-25T00:16:35.203Z,67.35
2022-08-25T00:16:45.187Z,67.24
2022-08-25T00:16:56.110Z,67.24
2022-08-25T00:17:05.075Z,67.35
2022-08-25T00:17:15.138Z,67.35
2022-08-25T00:17:25.083Z,67.35
2022-08-25T00:17:35.117Z,67.35
2022-08-25T00:17:45.151Z,67.24
2022-08-25T00:17:55.112Z,67.24
2022-08-25T00:18:05.310Z,67.24
2022-08-25T00:18:19.726Z,67.35
2022-08-25T00:18:25.189Z,67.35
2022-08-25T00:18:35.132Z,67.44
2022-08-25T00:18:45.160Z,67.44
2022-08-25T00:18:55.118Z,67.44
2022-08-25T00:19:05.185Z,67.44
2022-08-25T00:19:15.190Z,67.55
2022-08-25T00:19:25.071Z,67.55
2022-08-25T00:19:35.098Z,67.55
2022-08-25T00:19:45.182Z,67.55
2022-08-25T00:19:55.193Z,67.55
2022-08-25T00:20:05.088Z,67.55
2022-08-25T00:20:15.144Z,67.55
2022-08-25T00:20:25.129Z,67.55
2022-08-25T00:20:35.074Z,67.65
2022-08-25T00:20:49.010Z,67.65
2022-08-25T00:20:55.190Z,67.65
2022-08-25T00:21:05.177Z,67.74
2022-08-25T00:21:15.077Z,67.65
2022-08-25T00:21:25.076Z,67.65
2022-08-25T00:21:35.189Z,67.65
2022-08-25T00:21:45.069Z,67.65
2022-08-25T00:21:55.134Z,67.65
2022-08-25T00:22:05.206Z,67.65
2022-08-25T00:22:15.184Z,67.65
2022-08-25T00:22:25.165Z,67.55
2022-08-25T00:22:35.098Z,67.55
2022-08-25T00:22:45.177Z,67.55
2022-08-25T00:22:55.183Z,67.55
2022-08-25T00:23:05.085Z,67.55
2022-08-25T00:23:15.144Z,67.65
2022-08-25T00:23:25.171Z,67.65
2022-08-25T00:23:35.163Z,67.65
2022-08-25T00:23:45.083Z,67.74
2022-08-25T00:23:55.157Z,67.65
2022-08-25T00:24:05.144Z,67.65
2022-08-25T00:24:15.182Z,67.65
2022-08-25T00:24:25.172Z,67.65
2022-08-25T00:24:35.083Z,67.74
2022-08-25T00:24:45.202Z,67.74
2022-08-25T00:24:55.187Z,67.74
2022-08-25T00:25:05.080Z,67.74
2022-08-25T00:25:15.089Z,67.65
2022-08-25T00:25:25.109Z,67.65
2022-08-25T00:25:35.080Z,67.65
2022-08-25T00:25:45.101Z,67.65
2022-08-25T00:25:55.075Z,67.74
2022-08-25T00:26:05.173Z,67.74
2022-08-25T00:26:15.150Z,67.74
2022-08-25T00:26:25.081Z,67.74
2022-08-25T00:26:35.181Z,67.74
2022-08-25T00:26:45.075Z,67.74
2022-08-25T00:26:55.222Z,67.74
2022-08-25T00:27:05.176Z,67.85
2022-08-25T00:27:15.098Z,67.85
2022-08-25T00:27:25.191Z,67.94
2022-08-25T00:27:35.177Z,67.94
2022-08-25T00:27:45.825Z,67.94
2022-08-25T00:27:55.191Z,67.94
2022-08-25T00:28:08.390Z,67.94
2022-08-25T00:28:15.083Z,68.05
2022-08-25T00:28:25.159Z,67.94
2022-08-25T00:28:35.132Z,67.94
2022-08-25T00:28:45.086Z,67.94
2022-08-25T00:28:56.394Z,67.85
2022-08-25T00:29:05.118Z,67.85
2022-08-25T00:29:15.193Z,67.85
2022-08-25T00:29:25.150Z,67.85
2022-08-25T00:29:35.095Z,67.85
2022-08-25T00:29:45.098Z,67.85
2022-08-25T00:29:55.197Z,67.85
2022-08-25T00:30:05.123Z,67.85
2022-08-25T00:30:16.027Z,67.85
2022-08-25T00:30:25.167Z,67.85
2022-08-25T00:30:35.132Z,67.94
2022-08-25T00:30:45.183Z,67.94
2022-08-25T00:30:55.136Z,67.85
2022-08-25T00:31:05.222Z,67.85
2022-08-25T00:31:16.218Z,67.94
2022-08-25T00:31:37.800Z,67.94
2022-08-25T00:31:37.957Z,67.94
2022-08-25T00:31:45.203Z,68.05
2022-08-25T00:31:55.185Z,68.05
2022-08-25T00:32:05.202Z,67.94
2022-08-25T00:32:15.166Z,67.94
2022-08-25T00:32:25.154Z,67.94
2022-08-25T00:32:35.164Z,67.94
2022-08-25T00:32:50.491Z,67.94
2022-08-25T00:32:57.256Z,68.05
2022-08-25T00:33:05.108Z,68.05
2022-08-25T00:33:15.188Z,68.05
2022-08-25T00:33:25.083Z,68.05
2022-08-25T00:33:35.143Z,67.94
2022-08-25T00:33:45.141Z,67.94
2022-08-25T00:33:55.095Z,67.94
2022-08-25T00:34:05.095Z,67.94
2022-08-25T00:34:15.126Z,68.05
2022-08-25T00:34:25.124Z,68.05
2022-08-25T00:34:35.094Z,68.05
2022-08-25T00:34:45.123Z,68.05
2022-08-25T00:34:55.153Z,68.05
2022-08-25T00:35:05.136Z,68.05
2022-08-25T00:35:15.118Z,68.05
2022-08-25T00:35:25.096Z,68.05
2022-08-25T00:35:35.193Z,68.05
2022-08-25T00:35:45.194Z,68.05
2022-08-25T00:35:55.189Z,68.05
2022-08-25T00:36:05.155Z,68.05
2022-08-25T00:36:15.112Z,67.94
2022-08-25T00:36:25.132Z,67.94
2022-08-25T00:36:35.202Z,68.05
2022-08-25T00:36:45.122Z,68.05
2022-08-25T00:36:55.119Z,68.05
2022-08-25T00:37:05.093Z,68.05
2022-08-25T00:37:15.084Z,68.15
2022-08-25T00:37:25.169Z,68.15
2022-08-25T00:37:35.117Z,68.15
2022-08-25T00:37:45.190Z,68.15
2022-08-25T00:37:55.157Z,68.15
2022-08-25T00:38:05.374Z,68.15
2022-08-25T00:38:15.130Z,68.15
2022-08-25T00:38:25.155Z,68.05
2022-08-25T00:38:35.147Z,68.05
2022-08-25T00:38:45.198Z,68.15
2022-08-25T00:38:55.141Z,68.15
2022-08-25T00:39:05.174Z,68.15
2022-08-25T00:39:15.190Z,68.15
2022-08-25T00:39:25.077Z,68.15
2022-08-25T00:39:35.132Z,68.15
2022-08-25T00:39:45.237Z,68.25
2022-08-25T00:39:55.208Z,68.25
2022-08-25T00:40:05.251Z,68.25
2022-08-25T00:40:15.177Z,68.35
2022-08-25T00:40:25.271Z,68.35
2022-08-25T00:40:35.153Z,68.35
2022-08-25T00:40:45.192Z,68.35
2022-08-25T00:40:55.181Z,68.35
2022-08-25T00:41:05.177Z,68.35
2022-08-25T00:41:15.156Z,68.35
2022-08-25T00:41:25.155Z,68.35
2022-08-25T00:41:35.105Z,68.35
2022-08-25T00:41:45.099Z,68.35
2022-08-25T00:41:55.108Z,68.35
2022-08-25T00:42:05.129Z,68.35
2022-08-25T00:42:16.011Z,68.35
2022-08-25T00:42:25.185Z,68.35
2022-08-25T00:42:35.169Z,68.35
2022-08-25T00:42:45.102Z,68.35
2022-08-25T00:42:55.097Z,68.35
2022-08-25T00:43:05.139Z,68.35
2022-08-25T00:43:15.134Z,68.35
2022-08-25T00:43:25.124Z,68.35
2022-08-25T00:43:35.127Z,68.35
2022-08-25T00:43:45.204Z,68.35
2022-08-25T00:43:55.136Z,68.35
2022-08-25T00:44:05.177Z,68.35
2022-08-25T00:44:15.179Z,68.35
2022-08-25T00:44:25.080Z,68.25
2022-08-25T00:44:35.186Z,68.25
2022-08-25T00:44:45.433Z,68.25
2022-08-25T00:44:55.149Z,68.25
2022-08-25T00:45:05.148Z,68.25
2022-08-25T00:45:15.082Z,68.15
2022-08-25T00:45:25.117Z,68.25
2022-08-25T00:45:35.132Z,68.25
2022-08-25T00:45:45.181Z,68.25
2022-08-25T00:45:55.244Z,68.35
2022-08-25T00:46:05.217Z,68.38
2022-08-25T00:46:15.235Z,68.48
2022-08-25T00:46:25.192Z,68.45
2022-08-25T00:46:35.241Z,68.45
2022-08-25T00:46:45.085Z,68.45
2022-08-25T00:46:55.122Z,68.48
2022-08-25T00:47:05.187Z,68.48
2022-08-25T00:47:15.113Z,68.48
2022-08-25T00:47:25.077Z,68.48
2022-08-25T00:47:35.103Z,68.48
2022-08-25T00:47:45.098Z,68.48
2022-08-25T00:48:02.544Z,68.48
2022-08-25T00:48:05.227Z,68.59
2022-08-25T00:48:15.106Z,68.59
2022-08-25T00:48:25.088Z,68.59
2022-08-25T00:48:35.138Z,68.59
2022-08-25T00:48:45.078Z,68.59
2022-08-25T00:48:55.120Z,68.59
2022-08-25T00:49:05.079Z,68.59
2022-08-25T00:49:22.485Z,68.59
2022-08-25T00:49:25.661Z,68.68
2022-08-25T00:49:35.089Z,68.68
2022-08-25T00:49:45.092Z,68.68
2022-08-25T00:49:55.135Z,68.68
2022-08-25T00:50:05.089Z,68.68
2022-08-25T00:50:15.173Z,68.68
2022-08-25T00:50:26.592Z,68.68
2022-08-25T00:50:35.120Z,68.68
2022-08-25T00:50:45.075Z,68.68
2022-08-25T00:50:55.079Z,68.68
2022-08-25T00:51:05.088Z,68.68
2022-08-25T00:51:15.140Z,68.78
2022-08-25T00:51:25.106Z,68.78
2022-08-25T00:51:35.115Z,68.78
2022-08-25T00:51:45.093Z,68.78
2022-08-25T00:51:55.104Z,68.78
2022-08-25T00:52:05.109Z,68.88
2022-08-25T00:52:15.171Z,68.88
2022-08-25T00:52:25.154Z,68.88
2022-08-25T00:52:35.179Z,68.88
2022-08-25T00:52:45.175Z,68.88
2022-08-25T00:52:55.130Z,68.88
2022-08-25T00:53:05.109Z,68.88
2022-08-25T00:53:15.158Z,68.88
2022-08-25T00:53:25.143Z,68.88
2022-08-25T00:53:35.154Z,68.98
2022-08-25T00:53:45.200Z,68.98
2022-08-25T00:53:55.070Z,68.98
2022-08-25T00:54:05.185Z,68.98
2022-08-25T00:54:15.116Z,68.98
2022-08-25T00:54:25.198Z,69.09
2022-08-25T00:54:35.126Z,69.09
2022-08-25T00:54:45.114Z,68.98
2022-08-25T00:54:55.108Z,68.98
2022-08-25T00:55:08.032Z,68.98
2022-08-25T00:55:15.184Z,68.98
2022-08-25T00:55:25.164Z,68.98
2022-08-25T00:55:35.107Z,68.98
2022-08-25T00:55:45.149Z,69.09
2022-08-25T00:55:55.154Z,68.98
2022-08-25T00:56:05.147Z,68.98
2022-08-25T00:56:15.172Z,68.98
2022-08-25T00:56:25.097Z,68.98
2022-08-25T00:56:35.099Z,68.98
2022-08-25T00:56:45.108Z,68.98
2022-08-25T00:56:55.163Z,68.98
2022-08-25T00:57:05.137Z,68.98
2022-08-25T00:57:15.120Z,68.98
2022-08-25T00:57:34.875Z,68.98
2022-08-25T00:57:35.237Z,68.98
2022-08-25T00:57:45.152Z,69.09
2022-08-25T00:57:55.071Z,69.09
2022-08-25T00:58:05.350Z,69.09
2022-08-25T00:58:15.115Z,69.09
2022-08-25T00:58:25.088Z,69.09
2022-08-25T00:58:35.190Z,68.98
2022-08-25T00:58:45.153Z,69.09
2022-08-25T00:58:55.172Z,69.09
2022-08-25T00:59:05.077Z,69.09
2022-08-25T00:59:15.165Z,69.09
2022-08-25T00:59:25.185Z,69.09
2022-08-25T00:59:35.185Z,69.09
2022-08-25T00:59:45.090Z,69.09
2022-08-25T00:59:55.106Z,69.09
2022-08-25T01:00:05.190Z,69.09
2022-08-25T01:00:15.085Z,69.18
2022-08-25T01:00:25.126Z,69.18
2022-08-25T01:00:35.079Z,69.29
2022-08-25T01:00:45.122Z,69.38
2022-08-25T01:00:55.164Z,69.38
2022-08-25T01:01:05.240Z,69.38
2022-08-25T01:01:15.235Z,69.49
2022-08-25T01:01:25.247Z,69.49
2022-08-25T01:01:35.266Z,69.49
2022-08-25T01:01:45.113Z,69.49
2022-08-25T01:01:55.172Z,69.59
2022-08-25T01:02:05.148Z,69.59
2022-08-25T01:02:15.167Z,69.59
2022-08-25T01:02:25.198Z,69.59
2022-08-25T01:02:35.258Z,69.69
2022-08-25T01:02:45.252Z,69.69
2022-08-25T01:02:55.237Z,69.69
2022-08-25T01:03:05.211Z,69.69
2022-08-25T01:03:15.091Z,69.69
2022-08-25T01:03:31.632Z,69.69
2022-08-25T01:03:35.858Z,69.69
2022-08-25T01:03:45.184Z,69.69
2022-08-25T01:03:55.080Z,69.69
2022-08-25T01:04:05.099Z,69.69
2022-08-25T01:04:15.127Z,69.79
2022-08-25T01:04:25.112Z,69.79
2022-08-25T01:04:35.168Z,69.92
2022-08-25T01:04:48.633Z,69.89
2022-08-25T01:04:55.186Z,69.92
2022-08-25T01:05:05.085Z,70.03
2022-08-25T01:05:15.199Z,70.03
2022-08-25T01:05:25.086Z,70.03
2022-08-25T01:05:35.202Z,70.03
2022-08-25T01:05:45.195Z,69.92
2022-08-25T01:05:55.143Z,69.82
2022-08-25T01:06:05.072Z,69.82
2022-08-25T01:06:15.200Z,69.82
2022-08-25T01:06:25.087Z,69.82
2022-08-25T01:06:35.132Z,69.82
2022-08-25T01:06:45.157Z,69.82
2022-08-25T01:06:55.153Z,69.92
2022-08-25T01:07:05.136Z,69.92
2022-08-25T01:07:17.476Z,70.03
2022-08-25T01:07:25.197Z,70.03
2022-08-25T01:07:35.154Z,70.03
2022-08-25T01:07:45.174Z,70.03
2022-08-25T01:07:57.522Z,70.03
2022-08-25T01:08:06.506Z,70.03
2022-08-25T01:08:16.415Z,70.03
2022-08-25T01:08:25.193Z,69.92
2022-08-25T01:08:35.169Z,69.92
2022-08-25T01:08:45.121Z,70.03
2022-08-25T01:08:55.075Z,70.03
2022-08-25T01:09:05.165Z,69.92
2022-08-25T01:09:15.093Z,69.92
2022-08-25T01:09:25.146Z,69.92
2022-08-25T01:09:35.102Z,69.92
2022-08-25T01:09:45.111Z,69.82
2022-08-25T01:09:55.199Z,69.82
2022-08-25T01:10:05.178Z,69.82
2022-08-25T01:10:15.143Z,69.72
2022-08-25T01:10:25.197Z,69.72
2022-08-25T01:10:35.203Z,69.72
2022-08-25T01:10:45.110Z,69.72
2022-08-25T01:10:55.153Z,69.72
2022-08-25T01:11:05.168Z,69.72
2022-08-25T01:11:15.141Z,69.72
2022-08-25T01:11:25.098Z,69.72
2022-08-25T01:11:35.130Z,69.72
2022-08-25T01:11:45.117Z,69.62
2022-08-25T01:11:55.161Z,69.62
2022-08-25T01:12:05.113Z,69.62
2022-08-25T01:12:15.199Z,69.62
2022-08-25T01:12:25.116Z,69.62
2022-08-25T01:12:35.089Z,69.62
2022-08-25T01:12:45.088Z,69.62
2022-08-25T01:12:55.114Z,69.62
2022-08-25T01:13:05.169Z,69.72
2022-08-25T01:13:16.603Z,69.72
2022-08-25T01:13:25.073Z,69.72
2022-08-25T01:13:35.098Z,69.72
2022-08-25T01:13:45.181Z,69.72
2022-08-25T01:13:55.121Z,69.72
2022-08-25T01:14:05.148Z,69.72
2022-08-25T01:14:15.194Z,69.72
2022-08-25T01:14:25.181Z,69.72
2022-08-25T01:14:35.076Z,69.72
2022-08-25T01:14:45.124Z,69.72
2022-08-25T01:14:55.195Z,69.62
2022-08-25T01:15:05.110Z,69.72
2022-08-25T01:15:15.122Z,69.72
2022-08-25T01:15:25.258Z,69.72
2022-08-25T01:15:35.260Z,69.72
2022-08-25T01:15:45.154Z,69.72
2022-08-25T01:15:55.236Z,69.72
2022-08-25T01:16:05.274Z,69.72
2022-08-25T01:16:15.143Z,69.82
2022-08-25T01:16:25.156Z,69.82
2022-08-25T01:16:35.145Z,69.72
2022-08-25T01:16:45.114Z,69.72
2022-08-25T01:16:55.114Z,69.62
2022-08-25T01:17:05.118Z,69.52
2022-08-25T01:17:15.178Z,69.52
2022-08-25T01:17:25.079Z,69.42
2022-08-25T01:17:35.178Z,69.42
2022-08-25T01:17:45.161Z,69.42
2022-08-25T01:17:55.104Z,69.52
2022-08-25T01:18:05.324Z,69.52
2022-08-25T01:18:15.074Z,69.52
2022-08-25T01:18:25.072Z,69.52
2022-08-25T01:18:35.127Z,69.52
2022-08-25T01:18:45.095Z,69.52
2022-08-25T01:18:55.120Z,69.52
2022-08-25T01:19:05.112Z,69.62
2022-08-25T01:19:15.501Z,69.62
2022-08-25T01:19:25.151Z,69.62
2022-08-25T01:19:35.209Z,69.62
2022-08-25T01:19:45.102Z,69.62
2022-08-25T01:19:55.107Z,69.72
2022-08-25T01:20:05.102Z,69.72
2022-08-25T01:20:15.125Z,69.72
2022-08-25T01:20:29.161Z,69.62
2022-08-25T01:20:35.097Z,69.72
2022-08-25T01:20:45.094Z,69.72
2022-08-25T01:20:55.083Z,69.72
2022-08-25T01:21:05.113Z,69.72
2022-08-25T01:21:15.146Z,69.72
2022-08-25T01:21:25.100Z,69.62
2022-08-25T01:21:35.164Z,69.52
2022-08-25T01:21:45.095Z,69.52
2022-08-25T01:21:55.133Z,69.42
2022-08-25T01:22:05.202Z,69.42
2022-08-25T01:22:15.103Z,69.42
2022-08-25T01:22:25.141Z,69.42
2022-08-25T01:22:35.122Z,69.32
2022-08-25T01:22:45.089Z,69.32
2022-08-25T01:22:55.517Z,69.32
2022-08-25T01:23:05.123Z,69.32
2022-08-25T01:23:15.153Z,69.32
2022-08-25T01:23:25.203Z,69.42
2022-08-25T01:23:35.166Z,69.42
2022-08-25T01:23:45.097Z,69.42
2022-08-25T01:23:55.142Z,69.42
2022-08-25T01:24:05.073Z,69.52
2022-08-25T01:24:15.168Z,69.52
2022-08-25T01:24:25.165Z,69.52
2022-08-25T01:24:35.191Z,69.52
2022-08-25T01:24:45.075Z,69.52
2022-08-25T01:24:55.199Z,69.52
2022-08-25T01:25:05.131Z,69.62
2022-08-25T01:25:15.110Z,69.62
2022-08-25T01:25:25.099Z,69.62
2022-08-25T01:25:35.190Z,69.72
2022-08-25T01:25:45.179Z,69.72
2022-08-25T01:25:55.070Z,69.72
2022-08-25T01:26:05.155Z,69.62
2022-08-25T01:26:15.146Z,69.62
2022-08-25T01:26:30.659Z,69.62
2022-08-25T01:26:35.135Z,69.62
2022-08-25T01:26:45.095Z,69.62
2022-08-25T01:26:55.146Z,69.62
2022-08-25T01:27:05.094Z,69.72
2022-08-25T01:27:15.082Z,69.72
2022-08-25T01:27:25.080Z,69.72
2022-08-25T01:27:35.151Z,69.72
2022-08-25T01:27:45.107Z,69.82
2022-08-25T01:27:55.172Z,69.82
2022-08-25T01:28:05.296Z,69.82
2022-08-25T01:28:15.160Z,69.82
2022-08-25T01:28:25.139Z,69.82
2022-08-25T01:28:35.116Z,69.82
2022-08-25T01:28:45.115Z,69.82
2022-08-25T01:28:55.073Z,69.82
2022-08-25T01:29:05.144Z,69.92
2022-08-25T01:29:15.178Z,69.92
2022-08-25T01:29:25.189Z,69.82
2022-08-25T01:29:35.125Z,69.92
2022-08-25T01:29:45.167Z,69.82
2022-08-25T01:29:55.184Z,69.82
2022-08-25T01:30:05.148Z,69.85
2022-08-25T01:30:15.133Z,69.82
2022-08-25T01:30:25.139Z,69.82
2022-08-25T01:30:35.149Z,69.82
2022-08-25T01:30:45.221Z,69.96
2022-08-25T01:30:55.168Z,69.92
2022-08-25T01:31:05.174Z,69.96
2022-08-25T01:31:23.666Z,69.96
2022-08-25T01:31:25.210Z,69.96
2022-08-25T01:31:35.170Z,69.96
2022-08-25T01:31:45.096Z,69.96
2022-08-25T01:31:55.107Z,69.96
2022-08-25T01:32:05.141Z,69.96
2022-08-25T01:32:15.214Z,69.96
2022-08-25T01:32:25.094Z,69.96
2022-08-25T01:32:35.131Z,70.06
2022-08-25T01:32:45.126Z,70.03
2022-08-25T01:32:55.119Z,70.06
2022-08-25T01:33:05.168Z,70.06
2022-08-25T01:33:15.127Z,70.06
2022-08-25T01:33:25.108Z,70.06
2022-08-25T01:33:35.139Z,70.06
2022-08-25T01:33:45.097Z,70.06
2022-08-25T01:33:55.124Z,70.06
2022-08-25T01:34:05.097Z,70.06
2022-08-25T01:34:15.151Z,70.06
2022-08-25T01:34:25.073Z,70.06
2022-08-25T01:34:35.136Z,70.06
2022-08-25T01:34:45.089Z,70.06
2022-08-25T01:34:55.175Z,70.06
2022-08-25T01:35:05.189Z,70.06
2022-08-25T01:35:15.133Z,70.06
2022-08-25T01:35:25.202Z,70.16
2022-08-25T01:35:35.130Z,70.06
2022-08-25T01:35:45.203Z,70.16
2022-08-25T01:35:55.174Z,70.16
2022-08-25T01:36:05.182Z,70.16
2022-08-25T01:36:15.135Z,70.16
2022-08-25T01:36:25.173Z,70.16
2022-08-25T01:36:35.132Z,70.16
2022-08-25T01:36:45.113Z,70.16
2022-08-25T01:36:55.106Z,70.16
2022-08-25T01:37:05.173Z,70.16
2022-08-25T01:37:15.082Z,70.16
2022-08-25T01:37:25.177Z,70.26
2022-08-25T01:37:35.082Z,70.26
2022-08-25T01:37:45.139Z,70.16
2022-08-25T01:37:55.156Z,70.26
2022-08-25T01:38:05.256Z,70.16
2022-08-25T01:38:15.088Z,70.16
2022-08-25T01:38:25.157Z,70.16
2022-08-25T01:38:35.121Z,70.06
2022-08-25T01:38:45.133Z,70.06
2022-08-25T01:38:55.176Z,70.06
2022-08-25T01:39:05.154Z,70.06
2022-08-25T01:39:15.180Z,70.06
2022-08-25T01:39:25.188Z,70.06
2022-08-25T01:39:35.125Z,70.16
2022-08-25T01:39:45.129Z,70.16
2022-08-25T01:39:55.163Z,70.06
2022-08-25T01:40:05.219Z,70.16
2022-08-25T01:40:15.151Z,70.16
2022-08-25T01:40:25.159Z,70.16
2022-08-25T01:40:35.125Z,70.16
2022-08-25T01:40:45.070Z,70.16
2022-08-25T01:40:55.201Z,70.16
2022-08-25T01:41:05.172Z,70.16
2022-08-25T01:41:15.197Z,70.16
2022-08-25T01:41:25.116Z,70.16
2022-08-25T01:41:35.144Z,70.16
2022-08-25T01:41:45.184Z,70.16
2022-08-25T01:41:55.114Z,70.16
2022-08-25T01:42:05.198Z,70.16
2022-08-25T01:42:15.101Z,70.16
2022-08-25T01:42:25.169Z,70.16
2022-08-25T01:42:35.190Z,70.16
2022-08-25T01:42:45.180Z,70.16
2022-08-25T01:42:55.113Z,70.16
2022-08-25T01:43:05.196Z,70.16
2022-08-25T01:43:15.098Z,70.26
2022-08-25T01:43:25.189Z,70.26
2022-08-25T01:43:35.073Z,70.26
2022-08-25T01:43:45.114Z,70.26
2022-08-25T01:43:55.145Z,70.26
2022-08-25T01:44:05.080Z,70.26
2022-08-25T01:44:16.730Z,70.26
2022-08-25T01:44:25.069Z,70.36
2022-08-25T01:44:35.155Z,70.36
2022-08-25T01:44:45.198Z,70.46
2022-08-25T01:44:55.189Z,70.56
2022-08-25T01:45:05.070Z,70.56
2022-08-25T01:45:15.086Z,70.56
2022-08-25T01:45:25.195Z,70.66
2022-08-25T01:45:35.135Z,70.66
2022-08-25T01:45:45.168Z,70.66
2022-08-25T01:45:55.175Z,70.66
2022-08-25T01:46:05.197Z,70.76
2022-08-25T01:46:15.169Z,70.76
2022-08-25T01:46:25.300Z,70.66
2022-08-25T01:46:35.205Z,70.66
2022-08-25T01:46:45.103Z,70.66
2022-08-25T01:46:55.138Z,70.66
2022-08-25T01:47:05.182Z,70.56
2022-08-25T01:47:15.162Z,70.56
2022-08-25T01:47:25.170Z,70.56
2022-08-25T01:47:35.195Z,70.46
2022-08-25T01:47:45.084Z,70.46
2022-08-25T01:47:55.163Z,70.46
2022-08-25T01:48:05.286Z,70.46
2022-08-25T01:48:15.123Z,70.46
2022-08-25T01:48:25.165Z,70.46
2022-08-25T01:48:35.078Z,70.46
2022-08-25T01:48:45.114Z,70.46
2022-08-25T01:48:55.116Z,70.46
2022-08-25T01:49:06.810Z,70.56
2022-08-25T01:49:15.084Z,70.56
2022-08-25T01:49:25.110Z,70.66
2022-08-25T01:49:35.189Z,70.66
2022-08-25T01:49:45.113Z,70.66
2022-08-25T01:49:55.123Z,70.76
2022-08-25T01:50:05.086Z,70.86
2022-08-25T01:50:15.158Z,70.96
2022-08-25T01:50:25.123Z,70.96
2022-08-25T01:50:35.129Z,70.96
2022-08-25T01:50:45.166Z,70.96
2022-08-25T01:50:55.149Z,70.96
2022-08-25T01:51:05.192Z,70.96
2022-08-25T01:51:15.153Z,70.96
2022-08-25T01:51:25.147Z,70.96
2022-08-25T01:51:35.142Z,71.06
2022-08-25T01:51:45.175Z,71.16
2022-08-25T01:51:55.162Z,71.26
2022-08-25T01:52:05.150Z,71.36
2022-08-25T01:52:15.094Z,71.47
2022-08-25T01:52:25.198Z,71.56
2022-08-25T01:52:35.083Z,71.67
2022-08-25T01:52:45.157Z,71.67
2022-08-25T01:52:55.180Z,71.67
2022-08-25T01:53:05.153Z,71.77
2022-08-25T01:53:15.168Z,71.67
2022-08-25T01:53:25.072Z,71.67
2022-08-25T01:53:35.183Z,71.67
2022-08-25T01:53:45.222Z,71.67
2022-08-25T01:53:55.116Z,71.70
2022-08-25T01:54:05.161Z,71.67
2022-08-25T01:54:15.164Z,71.67
2022-08-25T01:54:25.083Z,71.67
2022-08-25T01:54:35.124Z,71.67
2022-08-25T01:54:45.095Z,71.60
2022-08-25T01:54:55.137Z,71.60
2022-08-25T01:55:05.110Z,71.60
2022-08-25T01:55:15.111Z,71.60
2022-08-25T01:55:25.082Z,71.60
2022-08-25T01:55:35.195Z,71.60
2022-08-25T01:55:45.130Z,71.60
2022-08-25T01:55:55.115Z,71.60
2022-08-25T01:56:05.095Z,71.60
2022-08-25T01:56:15.178Z,71.60
2022-08-25T01:56:25.199Z,71.60
2022-08-25T01:56:35.159Z,71.60
2022-08-25T01:56:45.181Z,71.60
2022-08-25T01:56:55.165Z,71.70
2022-08-25T01:57:05.121Z,71.70
2022-08-25T01:57:15.071Z,71.70
2022-08-25T01:57:25.106Z,71.70
2022-08-25T01:57:35.204Z,71.70
2022-08-25T01:57:45.106Z,71.70
2022-08-25T01:57:55.128Z,71.80
2022-08-25T01:58:05.243Z,71.91
2022-08-25T01:58:15.159Z,71.91
2022-08-25T01:58:25.181Z,72.00
2022-08-25T01:58:35.202Z,72.00
2022-08-25T01:58:45.088Z,72.00
2022-08-25T01:58:55.175Z,72.00
2022-08-25T01:59:05.191Z,72.00
2022-08-25T01:59:15.180Z,72.00
2022-08-25T01:59:25.125Z,72.00
2022-08-25T01:59:35.197Z,72.00
2022-08-25T01:59:45.081Z,72.00
2022-08-25T01:59:55.119Z,72.00
2022-08-25T02:00:05.144Z,72.00
2022-08-25T02:00:15.107Z,72.00
2022-08-25T02:00:25.115Z,71.91
2022-08-25T02:00:35.098Z,71.91
2022-08-25T02:00:45.120Z,71.91
2022-08-25T02:00:55.086Z,71.91
2022-08-25T02:01:05.167Z,71.91
2022-08-25T02:01:15.146Z,71.91
2022-08-25T02:01:25.245Z,72.00
2022-08-25T02:01:35.153Z,72.11
2022-08-25T02:01:45.135Z,72.11
2022-08-25T02:01:59.631Z,72.11
2022-08-25T02:02:05.491Z,72.11
2022-08-25T02:02:15.218Z,72.11
2022-08-25T02:02:26.162Z,72.11
2022-08-25T02:02:35.142Z,72.20
2022-08-25T02:02:45.148Z,72.20
2022-08-25T02:02:55.629Z,72.20
2022-08-25T02:03:05.673Z,72.31
2022-08-25T02:03:17.517Z,72.31
2022-08-25T02:03:25.178Z,72.41
2022-08-25T02:03:35.125Z,72.41
2022-08-25T02:03:45.082Z,72.51
2022-08-25T02:03:55.206Z,72.51
2022-08-25T02:04:05.077Z,72.51
2022-08-25T02:04:15.115Z,72.51
2022-08-25T02:04:25.160Z,72.51
2022-08-25T02:04:35.134Z,72.51
2022-08-25T02:04:45.136Z,72.61
2022-08-25T02:04:55.136Z,72.61
2022-08-25T02:05:05.121Z,72.61
2022-08-25T02:05:15.208Z,72.61
2022-08-25T02:05:25.117Z,72.61
2022-08-25T02:05:35.125Z,72.61
2022-08-25T02:05:45.146Z,72.61
2022-08-25T02:05:55.180Z,72.61
2022-08-25T02:06:05.085Z,72.61
2022-08-25T02:06:15.193Z,72.61
2022-08-25T02:06:30.053Z,72.61
2022-08-25T02:06:35.196Z,72.61
2022-08-25T02:06:45.132Z,72.61
2022-08-25T02:06:55.173Z,72.61
2022-08-25T02:07:05.119Z,72.61
2022-08-25T02:07:15.194Z,72.61
2022-08-25T02:07:25.138Z,72.61
2022-08-25T02:07:35.075Z,72.71
2022-08-25T02:07:45.196Z,72.71
2022-08-25T02:07:55.171Z,72.71
2022-08-25T02:08:05.296Z,72.71
2022-08-25T02:08:15.083Z,72.71
2022-08-25T02:08:25.173Z,72.71
2022-08-25T02:08:35.138Z,72.71
2022-08-25T02:08:45.153Z,72.61